Arnaudville, Louisiana
Current Conditions -  °F | °C
As of 7:53 PM on Thursday 27 Nov 2014 (Local Time) from KLFT Reporting Station
Clear Clear  
Wind Chill: 45°   Ceiling: Unl
Heat Index: 47°   Visibility: 10mi
Dew Point: 32°   Wind: 5mph
Humidity: 56%   Direction: 20°NNE
Pressure: 30.45"   Gusts: NA
Location:  30.4°N, 91.93°W
Report Text: KLFT 280153Z AUTO 02004KT 10SM CLR 08/00 A3045 RMK AO2 SLP311 T00830000
Loading
Personal Weather Stations






























Interactive Weather Map New forecast layout! Learn more

10-Day Weather Forecast

Advertisements
Track Severe Weather on mobile